createdAt,value
2018-05-07T00:01:36.909Z,100901.06
2018-05-07T00:04:05.229Z,100902.64
2018-05-07T00:06:33.701Z,100910.91
2018-05-07T00:09:02.161Z,100903.47
2018-05-07T00:11:36.862Z,100897.43
2018-05-07T00:14:05.124Z,100894.70
2018-05-07T00:16:33.459Z,100899.38
2018-05-07T00:19:02.035Z,100895.05
2018-05-07T00:21:30.356Z,100894.78
2018-05-07T00:23:58.682Z,100894.09
2018-05-07T00:26:27.031Z,100886.94
2018-05-07T00:28:55.454Z,100892.16
2018-05-07T00:31:23.856Z,100892.29
2018-05-07T00:33:52.183Z,100889.22
2018-05-07T00:36:20.508Z,100885.05
2018-05-07T00:38:48.829Z,100888.95
2018-05-07T00:41:17.201Z,100890.03
2018-05-07T00:43:45.600Z,100892.39
2018-05-07T00:46:13.977Z,100887.11
2018-05-07T00:48:42.301Z,100895.59
2018-05-07T00:51:10.665Z,100895.93
2018-05-07T00:53:38.993Z,100892.07
2018-05-07T00:56:07.484Z,100897.39
2018-05-07T00:58:36.539Z,100901.17
2018-05-07T01:01:04.864Z,100896.88
2018-05-07T01:03:33.255Z,100896.33
2018-05-07T01:06:01.616Z,100896.52
2018-05-07T01:08:29.943Z,100889.59
2018-05-07T01:10:58.273Z,100892.84
2018-05-07T01:13:26.618Z,100893.98
2018-05-07T01:15:55.157Z,100902.59
2018-05-07T01:18:23.508Z,100898.72
2018-05-07T01:20:51.823Z,100897.47
2018-05-07T01:23:20.147Z,100895.30
2018-05-07T01:25:48.458Z,100897.39
2018-05-07T01:28:16.870Z,100897.51
2018-05-07T01:30:45.303Z,100899.00
2018-05-07T01:33:14.328Z,100896.31
2018-05-07T01:35:42.715Z,100901.28
2018-05-07T01:38:12.026Z,100896.33
2018-05-07T01:40:40.401Z,100895.37
2018-05-07T01:43:08.746Z,100896.78
2018-05-07T01:45:37.134Z,100901.17
2018-05-07T01:48:05.459Z,100898.73
2018-05-07T01:50:33.781Z,100894.23
2018-05-07T01:53:02.122Z,100895.25
2018-05-07T01:55:30.424Z,100894.67
2018-05-07T01:57:59.190Z,100888.08
2018-05-07T02:00:28.320Z,100888.03
2018-05-07T02:02:56.614Z,100892.31
2018-05-07T02:05:25.040Z,100887.20
2018-05-07T02:07:53.305Z,100888.00
2018-05-07T02:10:21.647Z,100892.22
2018-05-07T02:12:49.953Z,100898.61
2018-05-07T02:15:18.263Z,100901.69
2018-05-07T02:17:46.645Z,100897.38
2018-05-07T02:20:15.044Z,100900.02
2018-05-07T02:22:43.517Z,100897.42
2018-05-07T02:25:11.844Z,100889.09
2018-05-07T02:27:40.228Z,100887.48
2018-05-07T02:30:08.542Z,100889.98
2018-05-07T02:32:37.553Z,100888.05
2018-05-07T02:35:05.916Z,100885.19
2018-05-07T02:37:34.620Z,100883.63
2018-05-07T02:40:03.710Z,100879.01
2018-05-07T02:42:32.023Z,100878.61
2018-05-07T02:45:00.409Z,100878.48
2018-05-07T02:47:28.732Z,100870.56
2018-05-07T02:49:57.278Z,100872.07
2018-05-07T02:52:25.594Z,100869.00
2018-05-07T02:54:53.892Z,100871.73
2018-05-07T02:57:22.208Z,100875.11
2018-05-07T02:59:50.525Z,100877.72
2018-05-07T03:02:20.765Z,100868.33
2018-05-07T03:04:49.066Z,100871.88
2018-05-07T03:07:17.440Z,100879.75
2018-05-07T03:09:45.735Z,100872.47
2018-05-07T03:12:14.234Z,100873.47
2018-05-07T03:14:42.525Z,100872.14
2018-05-07T03:17:10.846Z,100869.06
2018-05-07T03:19:39.205Z,100873.37
2018-05-07T03:22:07.574Z,100879.02
2018-05-07T03:24:35.872Z,100870.63
2018-05-07T03:27:05.133Z,100881.78
2018-05-07T03:29:33.650Z,100879.75
2018-05-07T03:32:01.975Z,100880.28
2018-05-07T03:34:30.310Z,100875.11
2018-05-07T03:36:59.279Z,100876.23
2018-05-07T03:39:27.622Z,100869.59
2018-05-07T03:41:55.971Z,100870.39
2018-05-07T03:44:25.113Z,100874.73
2018-05-07T03:46:53.444Z,100877.37
2018-05-07T03:49:21.779Z,100877.48
2018-05-07T03:51:51.057Z,100877.58
2018-05-07T03:54:19.388Z,100881.08
2018-05-07T03:56:47.693Z,100878.41
2018-05-07T03:59:16.026Z,100881.25
2018-05-07T04:01:44.328Z,100884.59
2018-05-07T04:04:12.761Z,100888.49
2018-05-07T04:06:41.077Z,100885.72
2018-05-07T04:09:09.385Z,100884.99
2018-05-07T04:11:37.690Z,100877.45
2018-05-07T04:14:06.131Z,100877.34
2018-05-07T04:16:46.254Z,100878.65
2018-05-07T04:19:26.358Z,100884.86
2018-05-07T04:22:06.439Z,100877.65
2018-05-07T04:24:34.777Z,100877.14
2018-05-07T04:27:03.125Z,100879.58
2018-05-07T04:29:31.417Z,100884.75
2018-05-07T04:31:59.871Z,100886.35
2018-05-07T04:34:28.274Z,100888.55
2018-05-07T04:36:56.675Z,100887.73
2018-05-07T04:39:25.024Z,100888.90
2018-05-07T04:41:53.334Z,100885.24
2018-05-07T04:44:21.646Z,100885.48
2018-05-07T04:46:49.968Z,100887.44
2018-05-07T04:49:18.295Z,100886.23
2018-05-07T04:51:47.425Z,100886.86
2018-05-07T04:54:16.037Z,100882.52
2018-05-07T04:56:44.442Z,100881.50
2018-05-07T04:59:12.879Z,100885.02
2018-05-07T05:01:41.202Z,100886.11
2018-05-07T05:04:09.569Z,100886.45
2018-05-07T05:06:37.618Z,100892.55
2018-05-07T05:09:05.999Z,100888.27
2018-05-07T05:11:34.391Z,100883.42
2018-05-07T05:14:02.755Z,100894.22
2018-05-07T05:16:31.199Z,100889.66
2018-05-07T05:18:59.610Z,100894.16
2018-05-07T05:21:29.469Z,100890.66
2018-05-07T05:23:57.703Z,100886.95
2018-05-07T05:26:26.016Z,100886.41
2018-05-07T05:28:54.384Z,100888.87
2018-05-07T05:31:22.707Z,100882.87
2018-05-07T05:33:51.034Z,100879.04
2018-05-07T05:36:19.422Z,100877.64
2018-05-07T05:38:47.745Z,100883.09
2018-05-07T05:41:16.112Z,100883.95
2018-05-07T05:43:44.572Z,100877.14
2018-05-07T05:46:12.909Z,100877.89
2018-05-07T05:48:41.245Z,100873.75
2018-05-07T05:51:09.569Z,100864.66
2018-05-07T05:53:37.996Z,100861.31
2018-05-07T05:56:06.389Z,100860.48
2018-05-07T05:58:34.716Z,100858.13
2018-05-07T06:01:03.049Z,100853.17
2018-05-07T06:03:31.380Z,100842.88
2018-05-07T06:05:59.748Z,100846.78
2018-05-07T06:08:28.133Z,100840.65
2018-05-07T06:10:56.513Z,100836.09
2018-05-07T06:13:24.848Z,100839.34
2018-05-07T06:15:53.194Z,100840.28
2018-05-07T06:18:21.621Z,100833.92
2018-05-07T06:20:49.950Z,100828.98
2018-05-07T06:23:18.344Z,100830.67
2018-05-07T06:25:46.656Z,100831.00
2018-05-07T06:28:14.993Z,100825.06
2018-05-07T06:30:43.382Z,100818.09
2018-05-07T06:33:11.730Z,100819.67
2018-05-07T06:35:40.151Z,100821.20
2018-05-07T06:38:08.480Z,100812.97
2018-05-07T06:40:36.815Z,100816.50
2018-05-07T06:43:05.210Z,100811.83
2018-05-07T06:45:33.580Z,100808.88
2018-05-07T06:48:01.880Z,100810.71
2018-05-07T06:50:30.260Z,100809.16
2018-05-07T06:52:58.705Z,100811.83
2018-05-07T06:55:27.093Z,100815.03
2018-05-07T06:57:55.481Z,100807.08
2018-05-07T07:00:23.809Z,100802.56
2018-05-07T07:02:52.249Z,100801.21
2018-05-07T07:05:20.458Z,100799.13
2018-05-07T07:07:48.864Z,100796.27
2018-05-07T07:10:17.224Z,100797.58
2018-05-07T07:12:45.622Z,100795.08
2018-05-07T07:15:13.963Z,100785.86
2018-05-07T07:17:42.319Z,100790.89
2018-05-07T07:20:10.649Z,100795.88
2018-05-07T07:22:38.960Z,100781.75
2018-05-07T07:25:07.286Z,100780.81
2018-05-07T07:27:35.673Z,100781.44
2018-05-07T07:30:03.987Z,100771.34
2018-05-07T07:32:32.312Z,100767.41
2018-05-07T07:35:01.269Z,100773.17
2018-05-07T07:37:29.659Z,100761.14
2018-05-07T07:39:58.059Z,100766.83
2018-05-07T07:42:26.430Z,100763.60
2018-05-07T07:44:54.757Z,100763.34
2018-05-07T07:47:23.088Z,100763.60
2018-05-07T07:49:51.418Z,100755.62
2018-05-07T07:52:19.767Z,100753.61
2018-05-07T07:54:48.098Z,100758.55
2018-05-07T07:57:16.427Z,100758.20
2018-05-07T07:59:44.751Z,100759.65
2018-05-07T08:02:13.088Z,100763.06
2018-05-07T08:04:41.469Z,100751.77
2018-05-07T08:07:10.116Z,100752.81
2018-05-07T08:09:38.433Z,100747.09
2018-05-07T08:12:06.866Z,100753.08
2018-05-07T08:14:35.152Z,100750.84
2018-05-07T08:17:03.550Z,100754.69
2018-05-07T08:19:32.021Z,100747.67
2018-05-07T08:22:00.358Z,100747.58
2018-05-07T08:24:28.706Z,100734.47
2018-05-07T08:26:57.099Z,100738.70
2018-05-07T08:29:25.459Z,100731.11
2018-05-07T08:31:53.768Z,100728.36
2018-05-07T08:34:22.106Z,100723.81
2018-05-07T08:36:50.459Z,100733.02
2018-05-07T08:39:18.777Z,100728.92
2018-05-07T08:41:47.103Z,100712.84
2018-05-07T08:44:15.493Z,100721.23
2018-05-07T08:46:43.800Z,100717.72
2018-05-07T08:49:12.131Z,100721.59
2018-05-07T08:51:40.457Z,100724.39
2018-05-07T08:54:08.912Z,100718.45
2018-05-07T08:56:37.215Z,100719.19
2018-05-07T08:59:05.591Z,100716.34
2018-05-07T09:01:33.894Z,100719.97
2018-05-07T09:04:02.298Z,100709.97
2018-05-07T09:06:30.653Z,100716.10
2018-05-07T09:08:58.988Z,100714.55
2018-05-07T09:11:27.359Z,100709.66
2018-05-07T09:13:55.687Z,100709.97
2018-05-07T09:16:24.036Z,100708.70
2018-05-07T09:18:52.425Z,100701.55
2018-05-07T09:21:20.769Z,100714.22
2018-05-07T09:23:49.126Z,100703.09
2018-05-07T09:26:17.450Z,100710.81
2018-05-07T09:28:45.774Z,100701.98
2018-05-07T09:31:14.108Z,100697.89
2018-05-07T09:33:42.429Z,100697.24
2018-05-07T09:36:10.739Z,100690.92
2018-05-07T09:38:39.146Z,100695.56
2018-05-07T09:41:07.479Z,100706.28
2018-05-07T09:43:35.828Z,100689.36
2018-05-07T09:46:04.141Z,100693.43
2018-05-07T09:48:32.480Z,100688.92
2018-05-07T09:51:00.811Z,100687.62
2018-05-07T09:53:29.307Z,100690.02
2018-05-07T09:55:57.702Z,100689.53
2018-05-07T09:58:26.026Z,100691.31
2018-05-07T10:00:54.340Z,100695.78
2018-05-07T10:03:22.664Z,100687.13
2018-05-07T10:05:50.992Z,100697.23
2018-05-07T10:08:19.338Z,100688.59
2018-05-07T10:10:47.692Z,100683.74
2018-05-07T10:13:16.018Z,100692.98
2018-05-07T10:15:44.449Z,100679.38
2018-05-07T10:18:12.780Z,100674.23
2018-05-07T10:20:41.098Z,100670.48
2018-05-07T10:23:09.418Z,100672.22
2018-05-07T10:25:37.735Z,100661.45
2018-05-07T10:28:06.086Z,100653.34
2018-05-07T10:30:34.461Z,100657.13
2018-05-07T10:33:02.781Z,100650.42
2018-05-07T10:35:31.088Z,100654.45
2018-05-07T10:37:59.421Z,100644.83
2018-05-07T10:40:27.736Z,100646.01
2018-05-07T10:42:56.071Z,100649.55
2018-05-07T10:45:24.390Z,100646.36
2018-05-07T10:47:52.728Z,100648.19
2018-05-07T10:50:21.045Z,100641.88
2018-05-07T10:52:49.378Z,100637.77
2018-05-07T10:55:17.717Z,100634.30
2018-05-07T10:57:46.042Z,100633.20
2018-05-07T11:00:14.473Z,100629.81
2018-05-07T11:02:42.864Z,100629.67
2018-05-07T11:05:11.260Z,100630.89
2018-05-07T11:07:39.578Z,100636.98
2018-05-07T11:10:07.947Z,100616.27
2018-05-07T11:12:36.344Z,100620.14
2018-05-07T11:15:04.732Z,100624.63
2018-05-07T11:17:33.048Z,100611.45
2018-05-07T11:20:01.420Z,100608.37
2018-05-07T11:22:29.847Z,100600.48
2018-05-07T11:24:58.203Z,100616.69
2018-05-07T11:27:26.547Z,100607.58
2018-05-07T11:29:54.869Z,100612.14
2018-05-07T11:32:23.219Z,100596.32
2018-05-07T11:34:51.567Z,100599.90
2018-05-07T11:37:19.912Z,100591.28
2018-05-07T11:39:48.225Z,100601.06
2018-05-07T11:42:16.661Z,100597.91
2018-05-07T11:44:44.983Z,100589.63
2018-05-07T11:47:13.333Z,100584.70
2018-05-07T11:49:41.718Z,100590.10
2018-05-07T11:52:10.056Z,100581.88
2018-05-07T11:54:38.405Z,100578.12
2018-05-07T11:57:06.750Z,100568.00
2018-05-07T11:59:35.062Z,100562.30
2018-05-07T12:02:03.383Z,100560.66
2018-05-07T12:04:31.706Z,100556.90
2018-05-07T12:07:00.040Z,100555.46
2018-05-07T12:09:28.363Z,100544.92
2018-05-07T12:11:56.700Z,100551.47
2018-05-07T12:14:25.146Z,100558.67
2018-05-07T12:16:53.443Z,100562.28
2018-05-07T12:19:21.782Z,100552.04
2018-05-07T12:21:50.152Z,100545.27
2018-05-07T12:24:18.466Z,100540.61
2018-05-07T12:26:46.916Z,100539.22
2018-05-07T12:29:15.242Z,100542.05
2018-05-07T12:31:43.776Z,100528.08
2018-05-07T12:34:11.984Z,100526.30
2018-05-07T12:36:40.314Z,100522.47
2018-05-07T12:39:08.713Z,100523.67
2018-05-07T12:41:37.047Z,100532.78
2018-05-07T12:44:05.405Z,100518.92
2018-05-07T12:46:33.806Z,100514.92
2018-05-07T12:49:02.141Z,100519.91
2018-05-07T12:51:30.494Z,100506.37
2018-05-07T12:53:58.827Z,100501.06
2018-05-07T12:56:27.168Z,100494.50
2018-05-07T12:58:55.501Z,100490.09
2018-05-07T13:01:24.017Z,100496.47
2018-05-07T13:03:52.355Z,100494.91
2018-05-07T13:06:20.729Z,100484.81
2018-05-07T13:08:49.043Z,100475.30
2018-05-07T13:11:17.427Z,100472.92
2018-05-07T13:13:45.834Z,100482.77
2018-05-07T13:16:14.168Z,100475.22
2018-05-07T13:18:42.490Z,100468.75
2018-05-07T13:21:10.933Z,100460.77
2018-05-07T13:23:39.233Z,100473.20
2018-05-07T13:26:07.653Z,100466.67
2018-05-07T13:28:35.975Z,100467.64
2018-05-07T13:31:04.358Z,100454.09
2018-05-07T13:33:32.695Z,100465.38
2018-05-07T13:36:01.025Z,100458.22
2018-05-07T13:38:29.390Z,100447.05
2018-05-07T13:40:57.746Z,100439.48
2018-05-07T13:43:26.107Z,100444.66
2018-05-07T13:45:54.459Z,100446.67
2018-05-07T13:48:22.785Z,100447.66
2018-05-07T13:50:51.105Z,100437.73
2018-05-07T13:53:19.488Z,100436.66
2018-05-07T13:55:47.872Z,100426.34
2018-05-07T13:58:16.266Z,100428.67
2018-05-07T14:00:44.577Z,100426.53
2018-05-07T14:03:12.919Z,100425.19
2018-05-07T14:05:41.313Z,100423.91
2018-05-07T14:08:09.723Z,100421.89
2018-05-07T14:10:38.041Z,100417.46
2018-05-07T14:13:06.382Z,100418.59
2018-05-07T14:15:35.163Z,100420.50
2018-05-07T14:18:03.492Z,100415.20
2018-05-07T14:20:31.805Z,100409.79
2018-05-07T14:23:00.129Z,100409.43
2018-05-07T14:25:28.481Z,100412.08
2018-05-07T14:27:56.813Z,100404.16
2018-05-07T14:30:25.163Z,100401.50
2018-05-07T14:32:53.491Z,100406.16
2018-05-07T14:35:21.824Z,100397.30
2018-05-07T14:37:50.178Z,100398.55
2018-05-07T14:40:18.512Z,100390.54
2018-05-07T14:42:46.912Z,100386.06
2018-05-07T14:45:15.151Z,100390.98
2018-05-07T14:47:43.465Z,100386.78
2018-05-07T14:50:11.826Z,100387.06
2018-05-07T14:52:40.130Z,100386.14
2018-05-07T14:55:08.449Z,100376.66
2018-05-07T14:57:36.759Z,100369.66
2018-05-07T15:00:05.176Z,100369.84
2018-05-07T15:02:33.502Z,100374.42
2018-05-07T15:05:01.837Z,100369.26
2018-05-07T15:07:30.494Z,100371.30
2018-05-07T15:09:58.858Z,100369.13
2018-05-07T15:12:27.174Z,100367.11
2018-05-07T15:14:55.599Z,100370.22
2018-05-07T15:17:23.925Z,100371.25
2018-05-07T15:19:52.299Z,100365.33
2018-05-07T15:22:20.681Z,100360.47
2018-05-07T15:24:49.077Z,100362.73
2018-05-07T15:27:17.407Z,100368.69
2018-05-07T15:29:45.750Z,100369.44
2018-05-07T15:32:14.141Z,100369.08
2018-05-07T15:34:42.472Z,100363.78
2018-05-07T15:37:10.795Z,100365.61
2018-05-07T15:39:39.229Z,100370.96
2018-05-07T15:42:07.611Z,100366.55
2018-05-07T15:44:36.093Z,100367.06
2018-05-07T15:47:04.526Z,100363.31
2018-05-07T15:49:32.861Z,100361.11
2018-05-07T15:52:01.217Z,100365.20
2018-05-07T15:54:29.547Z,100354.72
2018-05-07T15:56:57.868Z,100354.06
2018-05-07T15:59:26.207Z,100354.55
2018-05-07T16:01:54.529Z,100352.36
2018-05-07T16:04:22.876Z,100351.38
2018-05-07T16:06:51.241Z,100353.50
2018-05-07T16:09:19.579Z,100346.84
2018-05-07T16:11:47.917Z,100339.48
2018-05-07T16:14:16.317Z,100345.66
2018-05-07T16:16:44.627Z,100339.53
2018-05-07T16:19:13.055Z,100347.79
2018-05-07T16:21:41.402Z,100340.26
2018-05-07T16:24:09.774Z,100332.63
2018-05-07T16:26:38.148Z,100336.70
2018-05-07T16:29:06.482Z,100336.83
2018-05-07T16:31:34.883Z,100331.80
2018-05-07T16:34:03.206Z,100336.89
2018-05-07T16:36:31.631Z,100333.22
2018-05-07T16:38:59.983Z,100332.94
2018-05-07T16:41:28.415Z,100329.72
2018-05-07T16:43:56.729Z,100323.41
2018-05-07T16:46:25.129Z,100319.50
2018-05-07T16:48:53.539Z,100319.61
2018-05-07T16:51:21.862Z,100315.27
2018-05-07T16:53:50.285Z,100318.14
2018-05-07T16:56:18.625Z,100322.45
2018-05-07T16:58:46.958Z,100321.13
2018-05-07T17:01:15.358Z,100315.11
2018-05-07T17:03:43.841Z,100317.31
2018-05-07T17:06:12.209Z,100317.67
2018-05-07T17:08:40.619Z,100322.50
2018-05-07T17:11:09.033Z,100317.61
2018-05-07T17:13:37.336Z,100313.47
2018-05-07T17:16:05.650Z,100314.46
2018-05-07T17:18:34.035Z,100325.03
2018-05-07T17:21:02.478Z,100322.37
2018-05-07T17:23:30.818Z,100323.50
2018-05-07T17:25:59.148Z,100319.81
2018-05-07T17:28:27.570Z,100326.48
2018-05-07T17:30:55.879Z,100324.17
2018-05-07T17:33:24.196Z,100321.14
2018-05-07T17:35:52.503Z,100320.50
2018-05-07T17:38:20.851Z,100317.70
2018-05-07T17:40:49.199Z,100317.73
2018-05-07T17:43:17.716Z,100318.26
2018-05-07T17:45:59.714Z,100317.82
2018-05-07T17:48:39.894Z,100317.20
2018-05-07T17:51:08.268Z,100316.77
2018-05-07T17:53:36.587Z,100312.97
2018-05-07T17:56:04.974Z,100312.46
2018-05-07T17:58:33.283Z,100312.60
2018-05-07T18:01:01.638Z,100307.70
2018-05-07T18:03:29.962Z,100306.17
2018-05-07T18:05:58.319Z,100305.66
2018-05-07T18:08:26.653Z,100312.69
2018-05-07T18:10:55.076Z,100309.08
2018-05-07T18:13:23.420Z,100308.16
2018-05-07T18:15:51.833Z,100304.84
2018-05-07T18:18:20.161Z,100301.09
2018-05-07T18:20:48.601Z,100302.75
2018-05-07T18:23:16.944Z,100309.95
2018-05-07T18:25:45.335Z,100317.41
2018-05-07T18:28:13.786Z,100311.95
2018-05-07T18:30:42.137Z,100317.39
2018-05-07T18:33:10.469Z,100312.04
2018-05-07T18:35:38.778Z,100315.59
2018-05-07T18:38:07.155Z,100315.34
2018-05-07T18:40:35.465Z,100315.73
2018-05-07T18:43:03.828Z,100319.77
2018-05-07T18:45:32.211Z,100317.24
2018-05-07T18:48:00.686Z,100321.16
2018-05-07T18:50:29.074Z,100317.56
2018-05-07T18:52:57.413Z,100318.94
2018-05-07T18:55:25.773Z,100324.94
2018-05-07T18:57:54.111Z,100327.35
2018-05-07T19:00:22.489Z,100327.91
2018-05-07T19:02:50.834Z,100330.64
2018-05-07T19:05:19.149Z,100330.15
2018-05-07T19:07:47.537Z,100327.61
2018-05-07T19:10:15.932Z,100336.77
2018-05-07T19:12:44.279Z,100338.16
2018-05-07T19:15:12.617Z,100329.77
2018-05-07T19:17:41.013Z,100342.73
2018-05-07T19:20:09.398Z,100341.23
2018-05-07T19:22:37.785Z,100342.70
2018-05-07T19:25:06.164Z,100348.61
2018-05-07T19:27:34.531Z,100342.19
2018-05-07T19:30:02.864Z,100342.98
2018-05-07T19:32:31.248Z,100341.24
2018-05-07T19:34:59.596Z,100348.57
2018-05-07T19:37:27.953Z,100350.76
2018-05-07T19:39:56.456Z,100341.88
2018-05-07T19:42:24.700Z,100347.39
2018-05-07T19:44:53.103Z,100353.97
2018-05-07T19:47:21.449Z,100347.91
2018-05-07T19:49:49.778Z,100346.16
2018-05-07T19:52:18.189Z,100343.80
2018-05-07T19:54:46.523Z,100343.08
2018-05-07T19:57:14.853Z,100340.54
2018-05-07T19:59:43.189Z,100337.42
2018-05-07T20:02:11.531Z,100340.47
2018-05-07T20:04:39.874Z,100341.81
2018-05-07T20:07:08.256Z,100345.16
2018-05-07T20:09:36.591Z,100339.14
2018-05-07T20:12:04.936Z,100342.16
2018-05-07T20:14:33.430Z,100338.70
2018-05-07T20:17:01.810Z,100334.55
2018-05-07T20:19:30.155Z,100334.05
2018-05-07T20:21:58.596Z,100336.19
2018-05-07T20:24:26.914Z,100339.42
2018-05-07T20:26:55.240Z,100338.84
2018-05-07T20:29:23.602Z,100337.82
2018-05-07T20:31:51.920Z,100332.09
2018-05-07T20:34:20.260Z,100338.36
2018-05-07T20:36:48.567Z,100341.93
2018-05-07T20:39:16.895Z,100345.34
2018-05-07T20:41:45.338Z,100339.81
2018-05-07T20:44:14.089Z,100338.97
2018-05-07T20:46:42.405Z,100337.25
2018-05-07T20:49:10.803Z,100339.60
2018-05-07T20:51:39.173Z,100346.79
2018-05-07T20:54:07.585Z,100343.98
2018-05-07T20:56:35.917Z,100345.11
2018-05-07T20:59:04.261Z,100339.05
2018-05-07T21:01:32.606Z,100336.80
2018-05-07T21:04:01.011Z,100337.83
2018-05-07T21:06:29.337Z,100335.25
2018-05-07T21:08:57.673Z,100335.91
2018-05-07T21:11:26.026Z,100331.17
2018-05-07T21:13:54.408Z,100337.27
2018-05-07T21:16:22.767Z,100333.50
2018-05-07T21:18:51.084Z,100326.32
2018-05-07T21:21:19.484Z,100324.87
2018-05-07T21:23:47.763Z,100321.61
2018-05-07T21:26:16.111Z,100328.27
2018-05-07T21:28:44.571Z,100330.92
2018-05-07T21:31:12.890Z,100330.59
2018-05-07T21:33:41.273Z,100331.13
2018-05-07T21:36:09.675Z,100328.69
2018-05-07T21:38:38.033Z,100322.41
2018-05-07T21:41:06.386Z,100322.16
2018-05-07T21:43:34.726Z,100325.48
2018-05-07T21:46:03.099Z,100327.70
2018-05-07T21:48:31.414Z,100326.69
2018-05-07T21:50:59.763Z,100334.23
2018-05-07T21:53:28.082Z,100328.27
2018-05-07T21:55:56.422Z,100334.56
2018-05-07T21:58:24.753Z,100338.81
2018-05-07T22:00:53.164Z,100337.20
2018-05-07T22:03:21.572Z,100340.89
2018-05-07T22:05:49.931Z,100343.66
2018-05-07T22:08:18.330Z,100345.69
2018-05-07T22:10:46.743Z,100346.44
2018-05-07T22:13:15.056Z,100343.07
2018-05-07T22:15:43.926Z,100342.50
2018-05-07T22:18:12.245Z,100343.97
2018-05-07T22:20:40.621Z,100344.89
2018-05-07T22:23:09.019Z,100342.55
2018-05-07T22:25:37.353Z,100340.20
2018-05-07T22:28:05.823Z,100337.32
2018-05-07T22:30:34.172Z,100329.84
2018-05-07T22:33:02.578Z,100336.80
2018-05-07T22:35:30.899Z,100331.56
2018-05-07T22:37:59.251Z,100333.66
2018-05-07T22:40:27.588Z,100334.89
2018-05-07T22:42:55.915Z,100333.88
2018-05-07T22:45:24.449Z,100332.91
2018-05-07T22:47:52.846Z,100336.05
2018-05-07T22:50:21.220Z,100330.89
2018-05-07T22:52:49.619Z,100330.94
2018-05-07T22:55:20.657Z,100333.34
2018-05-07T22:57:48.984Z,100333.89
2018-05-07T23:00:17.310Z,100332.66
2018-05-07T23:02:48.478Z,100333.37
2018-05-07T23:05:16.801Z,100328.27
2018-05-07T23:07:45.384Z,100332.95
2018-05-07T23:10:13.795Z,100332.78
2018-05-07T23:12:42.106Z,100331.53
2018-05-07T23:15:10.454Z,100332.57
2018-05-07T23:17:38.967Z,100328.92
2018-05-07T23:20:07.302Z,100324.95
2018-05-07T23:22:35.627Z,100314.92
2018-05-07T23:25:04.047Z,100315.16
2018-05-07T23:27:32.381Z,100322.63
2018-05-07T23:30:00.688Z,100324.20
2018-05-07T23:32:29.031Z,100330.09
2018-05-07T23:34:57.382Z,100323.69
2018-05-07T23:37:25.790Z,100316.64
2018-05-07T23:39:54.179Z,100316.32
2018-05-07T23:42:22.498Z,100313.27
2018-05-07T23:44:50.823Z,100306.97
2018-05-07T23:47:19.152Z,100314.69
2018-05-07T23:49:47.463Z,100316.08
2018-05-07T23:52:15.800Z,100317.14
2018-05-07T23:54:44.147Z,100316.61
2018-05-07T23:57:12.467Z,100316.53
2018-05-07T23:59:40.789Z,100315.59
